Time;durP1;ratioP1;P1;durP2;ratioP2;P2;SDS_P1;SDS_P2;PMS_P1;PMS_P2;Temp;Humidity;BMP_temperature;BMP_pressure;BME280_temperature;BME280_humidity;BME280_pressure;Samples;Min_cycle;Max_cycle;Signal;HPM_P1;HPM_P2
2021/10/25 00:01:04;;;;;;;10.52;6.93;;;4.80;89.70;;;;;;4982352;28;20387;-88
2021/10/25 00:03:30;;;;;;;9.93;6.93;;;4.80;89.50;;;;;;4992494;28;20034;-88
2021/10/25 00:05:56;;;;;;;9.13;6.80;;;4.80;89.60;;;;;;4984612;28;20060;-88
2021/10/25 00:08:21;;;;;;;12.70;6.93;;;4.70;89.60;;;;;;4988983;28;20091;-89
2021/10/25 00:10:47;;;;;;;11.73;7.40;;;4.70;89.60;;;;;;4995629;28;20076;-88
2021/10/25 00:13:12;;;;;;;8.85;6.40;;;4.70;89.60;;;;;;4993940;28;20030;-89
2021/10/25 00:15:38;;;;;;;9.77;6.30;;;4.70;89.60;;;;;;4992974;28;20112;-88
2021/10/25 00:18:05;;;;;;;11.32;6.57;;;4.70;89.60;;;;;;4992503;28;20555;-88
2021/10/25 00:20:31;;;;;;;9.23;6.00;;;4.70;89.50;;;;;;4988105;28;20088;-88
2021/10/25 00:22:57;;;;;;;9.13;6.50;;;4.70;89.50;;;;;;4988433;28;20037;-88
2021/10/25 00:25:23;;;;;;;9.10;6.50;;;4.60;89.60;;;;;;4985052;28;20027;-88
2021/10/25 00:27:48;;;;;;;8.82;6.45;;;4.60;89.60;;;;;;4988494;28;20392;-88
2021/10/25 00:30:14;;;;;;;7.78;6.13;;;4.50;89.60;;;;;;4994282;28;20022;-88
2021/10/25 00:32:40;;;;;;;9.82;6.50;;;4.50;89.80;;;;;;4996078;28;20033;-88
2021/10/25 00:35:06;;;;;;;8.80;6.65;;;4.40;89.70;;;;;;4997186;28;20503;-88
2021/10/25 00:37:32;;;;;;;10.63;6.30;;;4.40;89.80;;;;;;4996890;28;20447;-88
2021/10/25 00:39:58;;;;;;;9.13;6.32;;;4.40;89.80;;;;;;5011700;28;20026;-88
2021/10/25 00:42:24;;;;;;;9.20;6.15;;;4.30;89.80;;;;;;4991065;28;20033;-89
2021/10/25 00:44:50;;;;;;;9.48;6.32;;;4.30;89.70;;;;;;4993818;28;20022;-89
2021/10/25 00:47:16;;;;;;;10.90;6.70;;;4.20;89.80;;;;;;4991679;28;20029;-88
2021/10/25 00:49:41;;;;;;;12.68;7.03;;;4.20;89.90;;;;;;4996533;28;20519;-89
2021/10/25 00:52:08;;;;;;;9.57;6.80;;;4.10;89.80;;;;;;4991912;28;20686;-89
2021/10/25 00:54:37;;;;;;;12.48;7.70;;;4.00;90.00;;;;;;4989201;28;20023;-88
2021/10/25 00:57:04;;;;;;;13.57;7.30;;;4.00;90.00;;;;;;4990321;28;20026;-88
2021/10/25 00:59:31;;;;;;;10.82;7.70;;;4.00;90.10;;;;;;4994956;28;20029;-88
2021/10/25 01:01:57;;;;;;;14.10;7.95;;;4.00;90.20;;;;;;5006133;28;20026;-88
2021/10/25 01:04:23;;;;;;;20.98;10.65;;;4.00;90.30;;;;;;4995768;28;20037;-89
2021/10/25 01:06:49;;;;;;;17.70;9.82;;;4.10;90.20;;;;;;5008757;28;20034;-88
2021/10/25 01:09:16;;;;;;;19.15;9.43;;;4.10;90.20;;;;;;4989824;28;20025;-89
2021/10/25 01:11:42;;;;;;;15.05;9.25;;;4.00;90.20;;;;;;4990124;28;20480;-89
2021/10/25 01:14:07;;;;;;;20.63;9.68;;;4.00;90.20;;;;;;4987906;28;20054;-88
2021/10/25 01:16:33;;;;;;;18.23;10.02;;;4.00;90.30;;;;;;4992865;28;20037;-89
2021/10/25 01:18:59;;;;;;;15.60;9.63;;;4.00;90.20;;;;;;4979390;28;20053;-88
2021/10/25 01:21:25;;;;;;;13.98;9.15;;;3.90;90.20;;;;;;4991262;28;20110;-89
2021/10/25 01:23:51;;;;;;;14.07;9.52;;;3.80;90.20;;;;;;5007937;28;20036;-88
2021/10/25 01:26:21;;;;;;;17.50;10.10;;;3.80;90.30;;;;;;4985175;28;20365;-88
2021/10/25 01:28:48;;;;;;;16.50;9.77;;;3.80;90.40;;;;;;4991458;28;20017;-89
2021/10/25 01:31:15;;;;;;;17.50;9.70;;;3.70;90.40;;;;;;4989257;28;20068;-88
2021/10/25 01:33:44;;;;;;;16.35;9.93;;;3.80;90.50;;;;;;4995325;28;20041;-89
2021/10/25 01:36:09;;;;;;;16.92;10.38;;;3.70;90.60;;;;;;4992418;28;20029;-88
2021/10/25 01:38:35;;;;;;;16.13;10.00;;;3.80;90.60;;;;;;4994760;28;20033;-88
2021/10/25 01:41:01;;;;;;;16.10;9.75;;;3.80;90.60;;;;;;4991390;28;20026;-88
2021/10/25 01:43:26;;;;;;;17.20;9.98;;;3.80;90.60;;;;;;5002168;28;20034;-89
2021/10/25 01:45:52;;;;;;;17.00;9.65;;;3.80;90.60;;;;;;5005326;28;20018;-89
2021/10/25 01:48:17;;;;;;;17.67;9.52;;;3.80;90.60;;;;;;5043272;23;20108;-67
2021/10/25 01:50:43;;;;;;;20.48;9.98;;;3.70;90.60;;;;;;4963592;28;20486;-68
2021/10/25 01:53:10;;;;;;;20.35;10.30;;;3.70;90.60;;;;;;4986486;28;20493;-68
2021/10/25 01:55:36;;;;;;;16.25;10.10;;;3.70;90.60;;;;;;4987928;28;20343;-68
2021/10/25 01:58:02;;;;;;;15.55;9.25;;;3.70;90.70;;;;;;4966207;28;20069;-68
2021/10/25 02:00:27;;;;;;;16.77;10.40;;;3.70;90.70;;;;;;4968491;28;20482;-69
2021/10/25 02:02:53;;;;;;;20.20;10.27;;;3.70;90.70;;;;;;4983235;28;20044;-68
2021/10/25 02:05:18;;;;;;;15.40;9.55;;;3.70;90.70;;;;;;4971230;28;20502;-69
2021/10/25 02:07:44;;;;;;;22.33;10.68;;;3.60;90.70;;;;;;4982363;28;20052;-69
2021/10/25 02:10:11;;;;;;;18.02;11.07;;;3.60;90.70;;;;;;4965515;28;20041;-69
2021/10/25 02:12:37;;;;;;;17.73;9.80;;;3.60;90.80;;;;;;4986908;28;20435;-69
2021/10/25 02:15:03;;;;;;;18.17;9.52;;;3.60;90.80;;;;;;4980080;28;20042;-69
2021/10/25 02:17:30;;;;;;;18.08;10.32;;;3.60;90.80;;;;;;4982689;28;20033;-69
2021/10/25 02:19:55;;;;;;;20.27;10.50;;;3.50;90.80;;;;;;4960193;28;20123;-69
2021/10/25 02:22:21;;;;;;;17.98;9.70;;;3.50;90.90;;;;;;4976525;28;20105;-69
2021/10/25 02:24:47;;;;;;;18.05;10.63;;;3.50;90.90;;;;;;4980677;28;20029;-69
2021/10/25 02:27:14;;;;;;;26.75;10.25;;;3.60;90.90;;;;;;4985464;28;20502;-69
2021/10/25 02:29:40;;;;;;;20.77;9.38;;;3.50;90.80;;;;;;4989573;28;20406;-69
2021/10/25 02:32:07;;;;;;;15.57;9.80;;;3.40;90.70;;;;;;4986623;28;20030;-69
2021/10/25 02:34:33;;;;;;;15.35;9.18;;;3.40;90.90;;;;;;4989478;28;20037;-69
2021/10/25 02:36:59;;;;;;;19.40;9.88;;;3.40;91.00;;;;;;4967499;28;20105;-69
2021/10/25 02:39:28;;;;;;;15.25;9.95;;;3.40;91.00;;;;;;4973021;28;20122;-69
2021/10/25 02:41:54;;;;;;;17.95;9.45;;;3.30;91.00;;;;;;4988593;28;20113;-69
2021/10/25 02:44:20;;;;;;;14.60;9.07;;;3.30;91.10;;;;;;4968493;28;20039;-68
2021/10/25 02:46:46;;;;;;;13.20;8.07;;;3.30;91.10;;;;;;4985225;28;20551;-68
2021/10/25 02:49:11;;;;;;;12.05;8.27;;;3.30;91.10;;;;;;4978788;28;20038;-67
2021/10/25 02:51:37;;;;;;;11.13;8.15;;;3.30;91.10;;;;;;4982733;28;20169;-68
2021/10/25 02:54:02;;;;;;;13.52;8.15;;;3.30;91.10;;;;;;4987853;28;20057;-68
2021/10/25 02:56:28;;;;;;;11.18;7.63;;;3.30;91.20;;;;;;4970772;28;20030;-67
2021/10/25 02:58:55;;;;;;;12.60;7.68;;;3.20;91.20;;;;;;4984811;28;20026;-67
2021/10/25 03:01:21;;;;;;;11.02;6.68;;;3.20;91.20;;;;;;4956178;28;20018;-68
2021/10/25 03:03:47;;;;;;;11.23;6.43;;;3.20;91.20;;;;;;4961770;28;20118;-68
2021/10/25 03:06:13;;;;;;;10.30;6.88;;;3.20;91.20;;;;;;4976912;28;20458;-67
2021/10/25 03:08:39;;;;;;;9.50;6.50;;;3.20;91.20;;;;;;4989616;28;20118;-69
2021/10/25 03:11:05;;;;;;;8.13;6.50;;;3.20;91.20;;;;;;4975048;28;20022;-68
2021/10/25 03:13:30;;;;;;;10.32;6.25;;;3.20;91.10;;;;;;4963850;28;20037;-68
2021/10/25 03:15:57;;;;;;;10.60;6.00;;;3.20;91.10;;;;;;4971084;28;20706;-67
2021/10/25 03:18:22;;;;;;;10.32;6.07;;;3.20;91.10;;;;;;4992064;28;20112;-67
2021/10/25 03:20:48;;;;;;;8.90;6.45;;;3.10;91.10;;;;;;4979865;28;20513;-67
2021/10/25 03:23:15;;;;;;;8.55;5.63;;;3.10;91.10;;;;;;4985426;28;20036;-67
2021/10/25 03:25:40;;;;;;;13.43;6.70;;;3.10;91.20;;;;;;4971192;28;20534;-71
2021/10/25 03:28:07;;;;;;;11.60;6.43;;;3.00;91.20;;;;;;4975499;28;20030;-67
2021/10/25 03:30:33;;;;;;;8.98;6.53;;;3.00;91.20;;;;;;4974948;28;20064;-68
2021/10/25 03:32:59;;;;;;;10.30;6.20;;;2.90;91.20;;;;;;4962854;28;20062;-68
2021/10/25 03:35:25;;;;;;;10.25;5.88;;;3.00;91.30;;;;;;4986915;28;20097;-68
2021/10/25 03:37:51;;;;;;;10.50;6.07;;;3.00;91.40;;;;;;4973918;28;20510;-68
2021/10/25 03:40:17;;;;;;;9.02;6.60;;;3.00;91.40;;;;;;4992514;28;20386;-68
2021/10/25 03:42:46;;;;;;;10.63;6.22;;;3.00;91.30;;;;;;4990926;28;20042;-68
2021/10/25 03:48:02;;;;;;;12.18;6.13;;;3.00;91.30;;;;;;4984846;28;20093;-68
2021/10/25 03:50:31;;;;;;;9.27;6.30;;;3.00;91.30;;;;;;4967252;28;20490;-67
2021/10/25 03:53:11;;;;;;;7.35;5.80;;;3.00;91.30;;;;;;4989693;28;20026;-67
2021/10/25 03:56:03;;;;;;;11.95;5.80;;;2.90;91.20;;;;;;4991437;28;20530;-68
2021/10/25 04:30:24;;;;;;;8.60;5.85;;;2.70;91.30;;;;;;4987207;28;20027;-69
2021/10/25 04:32:49;;;;;;;6.70;5.38;;;2.70;91.30;;;;;;4978094;28;20441;-69
2021/10/25 04:35:15;;;;;;;8.02;5.82;;;2.70;91.40;;;;;;4989435;28;20512;-70
2021/10/25 04:37:41;;;;;;;8.95;6.05;;;2.70;91.40;;;;;;4975407;28;20035;-69
2021/10/25 04:40:08;;;;;;;9.63;6.05;;;2.60;91.30;;;;;;4979363;28;20026;-69
2021/10/25 04:42:34;;;;;;;7.97;5.53;;;2.70;91.40;;;;;;4964477;28;20106;-70
2021/10/25 04:45:00;;;;;;;8.60;6.00;;;2.70;91.60;;;;;;4989055;28;20027;-69
2021/10/25 04:47:26;;;;;;;8.00;5.55;;;2.60;91.40;;;;;;4972822;28;20081;-71
2021/10/25 04:49:52;;;;;;;9.00;6.00;;;2.60;91.40;;;;;;4983422;28;20382;-69
2021/10/25 04:52:18;;;;;;;7.72;5.95;;;2.60;91.50;;;;;;4973703;28;20824;-70
2021/10/25 04:54:44;;;;;;;10.20;6.10;;;2.60;91.40;;;;;;4990926;28;20098;-70
2021/10/25 04:57:09;;;;;;;8.70;5.53;;;2.60;91.50;;;;;;4983427;28;20039;-69
2021/10/25 04:59:36;;;;;;;10.07;6.55;;;2.50;91.50;;;;;;4972109;28;20113;-69
2021/10/25 05:02:02;;;;;;;9.15;6.30;;;2.50;91.40;;;;;;4961081;28;20022;-69
2021/10/25 05:04:28;;;;;;;8.75;5.90;;;2.50;91.50;;;;;;4982870;28;20084;-69
2021/10/25 05:06:54;;;;;;;11.00;6.30;;;2.40;91.40;;;;;;4980230;28;20652;-69
2021/10/25 05:09:19;;;;;;;10.07;6.10;;;2.40;91.50;;;;;;4985599;28;20022;-69
2021/10/25 05:11:45;;;;;;;8.98;6.22;;;2.40;91.50;;;;;;4986770;28;20387;-69
2021/10/25 05:14:11;;;;;;;11.07;5.95;;;2.40;91.60;;;;;;4985355;28;20531;-69
2021/10/25 05:16:36;;;;;;;11.23;5.95;;;2.40;91.60;;;;;;4991681;28;20042;-70
2021/10/25 05:19:02;;;;;;;10.13;5.90;;;2.50;91.80;;;;;;4991468;28;20037;-71
2021/10/25 05:21:28;;;;;;;10.88;6.28;;;2.40;91.50;;;;;;4985262;28;20049;-69
2021/10/25 05:23:53;;;;;;;9.15;6.05;;;2.40;91.50;;;;;;4972992;28;20076;-72
2021/10/25 05:26:20;;;;;;;8.60;5.57;;;2.40;91.40;;;;;;4980304;28;20030;-72
2021/10/25 05:28:45;;;;;;;9.20;6.45;;;2.30;91.40;;;;;;4956433;28;20085;-71
2021/10/25 05:31:11;;;;;;;10.02;5.97;;;2.20;91.50;;;;;;4972570;28;20030;-72
2021/10/25 05:33:39;;;;;;;7.65;5.55;;;2.20;91.60;;;;;;4989430;28;20030;-72
2021/10/25 05:36:05;;;;;;;7.32;5.35;;;2.20;91.60;;;;;;4989905;28;20053;-72
2021/10/25 05:38:31;;;;;;;8.95;5.07;;;2.20;91.70;;;;;;4982958;28;20033;-72
2021/10/25 05:40:56;;;;;;;8.07;5.80;;;2.20;91.60;;;;;;4974000;28;20073;-72
2021/10/25 05:43:22;;;;;;;7.72;5.53;;;2.10;91.60;;;;;;4985641;28;20082;-70
2021/10/25 05:45:48;;;;;;;11.05;6.03;;;2.10;91.70;;;;;;4976789;28;20487;-70
2021/10/25 05:48:14;;;;;;;10.05;6.28;;;2.20;91.70;;;;;;4957889;28;20037;-70
2021/10/25 05:50:41;;;;;;;8.82;5.70;;;2.20;91.70;;;;;;4973718;28;20034;-70
2021/10/25 05:53:08;;;;;;;8.63;5.82;;;2.20;91.70;;;;;;4990128;28;20026;-68
2021/10/25 05:55:34;;;;;;;11.90;6.07;;;2.20;91.70;;;;;;4991149;28;20026;-71
2021/10/25 05:58:00;;;;;;;9.85;5.90;;;2.20;91.70;;;;;;4973562;28;20035;-70
2021/10/25 06:00:31;;;;;;;9.50;5.53;;;2.10;91.70;;;;;;4972369;28;20030;-69
2021/10/25 06:02:57;;;;;;;10.07;5.67;;;2.10;91.70;;;;;;4983549;28;20505;-70
2021/10/25 06:05:26;;;;;;;9.02;6.18;;;2.10;91.70;;;;;;4990815;28;20331;-69
2021/10/25 06:07:52;;;;;;;9.23;5.70;;;2.10;91.80;;;;;;4972756;28;20022;-71
2021/10/25 06:10:25;;;;;;;7.70;5.57;;;2.10;91.80;;;;;;4973774;28;20114;-71
2021/10/25 06:12:51;;;;;;;12.50;5.88;;;2.10;91.80;;;;;;4972819;28;20491;-70
2021/10/25 06:15:20;;;;;;;9.43;6.38;;;2.10;91.90;;;;;;4973707;28;20034;-70
2021/10/25 06:18:08;;;;;;;9.63;5.97;;;2.10;91.90;;;;;;4973771;28;20431;-70
2021/10/25 06:20:35;;;;;;;10.85;6.53;;;2.20;91.90;;;;;;4990860;28;20027;-71
2021/10/25 06:23:10;;;;;;;12.07;6.72;;;2.20;91.90;;;;;;4989701;28;20076;-70
2021/10/25 06:25:37;;;;;;;13.07;6.82;;;2.20;91.90;;;;;;4990176;28;20026;-68
2021/10/25 06:28:03;;;;;;;13.73;6.47;;;2.20;92.00;;;;;;4971472;28;20394;-70
2021/10/25 06:30:29;;;;;;;10.88;6.88;;;2.20;92.00;;;;;;4980821;28;20503;-71
2021/10/25 06:32:55;;;;;;;10.32;6.50;;;2.20;92.00;;;;;;4962604;28;20541;-70
2021/10/25 06:35:25;;;;;;;9.80;6.82;;;2.30;92.00;;;;;;4973699;28;20022;-71
2021/10/25 06:40:20;;;;;;;10.55;7.50;;;2.30;92.00;;;;;;4975362;28;20069;-70
2021/10/25 06:42:46;;;;;;;10.02;6.93;;;2.30;92.00;;;;;;4978077;28;20522;-71
2021/10/25 06:45:14;;;;;;;10.05;6.85;;;2.30;91.90;;;;;;4985457;28;20027;-72
2021/10/25 06:47:41;;;;;;;13.10;7.15;;;2.20;91.90;;;;;;4987254;28;20022;-69
2021/10/25 06:50:07;;;;;;;9.85;6.93;;;2.20;91.90;;;;;;4979876;28;20693;-71
2021/10/25 06:52:33;;;;;;;10.20;7.15;;;2.20;92.00;;;;;;4962545;28;20026;-70
2021/10/25 06:54:59;;;;;;;11.85;7.30;;;2.30;92.10;;;;;;4977237;28;20068;-70
2021/10/25 06:57:25;;;;;;;8.98;6.80;;;2.30;92.20;;;;;;4975330;28;20372;-70
2021/10/25 06:59:51;;;;;;;12.00;6.97;;;2.40;92.30;;;;;;4991672;28;20487;-70
2021/10/25 07:02:17;;;;;;;13.85;7.15;;;2.60;92.30;;;;;;4984125;28;20134;-69
2021/10/25 07:04:43;;;;;;;11.65;6.97;;;2.80;92.20;;;;;;4956704;28;20027;-67
2021/10/25 07:07:10;;;;;;;8.95;6.53;;;3.00;92.30;;;;;;4972803;28;20117;-70
2021/10/25 07:09:35;;;;;;;10.05;6.38;;;3.30;92.30;;;;;;4972731;28;20026;-70
2021/10/25 07:12:01;;;;;;;12.50;7.05;;;3.50;92.20;;;;;;4994728;28;20033;-69
2021/10/25 07:14:32;;;;;;;10.77;6.80;;;3.80;92.10;;;;;;4973959;28;20192;-71
2021/10/25 08:06:09;;;;;;;8.82;6.18;;;8.40;91.10;;;;;;5015409;28;20380;-89
2021/10/25 08:11:39;;;;;;;8.80;6.68;;;8.40;90.60;;;;;;4999563;28;20073;-89
2021/10/25 08:17:39;;;;;;;;;;;;;;;;;;;;;
2021/10/25 08:20:29;;;;;;;11.57;6.85;;;8.10;90.60;;;;;;5015536;28;20487;-88
2021/10/25 08:23:23;;;;;;;18.20;10.38;;;8.10;90.70;;;;;;4997618;28;20117;-89
2021/10/25 08:25:53;;;;;;;15.00;9.10;;;8.00;90.60;;;;;;4998618;28;20291;-88
2021/10/25 08:28:18;;;;;;;9.60;7.10;;;7.90;90.80;;;;;;5004498;23;20038;-68
2021/10/25 08:30:45;;;;;;;12.60;7.45;;;7.80;90.90;;;;;;5013155;28;20092;-71
2021/10/25 08:33:30;;;;;;;10.63;6.22;;;8.00;90.90;;;;;;5012668;28;20057;-69
2021/10/25 08:36:09;;;;;;;11.82;7.03;;;8.00;90.90;;;;;;5008911;28;20029;-68
2021/10/25 08:41:21;;;;;;;10.13;6.68;;;8.20;90.90;;;;;;5012969;28;20045;-69
2021/10/25 08:43:49;;;;;;;9.50;6.40;;;8.30;91.00;;;;;;5012552;28;20454;-69
2021/10/25 08:46:15;;;;;;;9.88;6.72;;;8.40;90.80;;;;;;5012274;28;20036;-69
2021/10/25 08:48:45;;;;;;;9.60;6.82;;;8.50;90.70;;;;;;5004638;28;20355;-69
2021/10/25 08:51:12;;;;;;;12.52;7.88;;;8.60;91.00;;;;;;5012459;28;20025;-69
2021/10/25 08:53:37;;;;;;;10.63;6.72;;;8.80;90.90;;;;;;5012039;28;20509;-69
2021/10/25 08:56:05;;;;;;;9.52;6.75;;;8.80;90.70;;;;;;5012731;28;20026;-69
2021/10/25 08:58:35;;;;;;;13.85;7.78;;;8.80;90.60;;;;;;4991880;28;20084;-69
2021/10/25 09:01:00;;;;;;;11.93;7.47;;;8.70;90.70;;;;;;5012554;28;20038;-69
2021/10/25 09:03:26;;;;;;;13.48;7.95;;;8.80;91.00;;;;;;5008873;28;20104;-69
2021/10/25 09:06:02;;;;;;;15.50;7.63;;;8.90;91.00;;;;;;5012170;28;20037;-69
2021/10/25 09:08:30;;;;;;;17.42;7.65;;;9.10;91.10;;;;;;5002187;28;20027;-69
2021/10/25 09:10:56;;;;;;;12.45;8.00;;;9.10;91.00;;;;;;4994561;28;20022;-69
2021/10/25 09:13:24;;;;;;;13.02;7.70;;;9.20;90.90;;;;;;4986091;28;20022;-69
2021/10/25 09:15:51;;;;;;;10.88;7.47;;;9.30;90.90;;;;;;4993789;28;20026;-69
2021/10/25 09:18:20;;;;;;;15.85;7.43;;;9.30;90.80;;;;;;4991158;28;20072;-69
2021/10/25 09:20:52;;;;;;;16.02;8.48;;;9.30;90.90;;;;;;5012446;28;20036;-69
2021/10/25 09:23:24;;;;;;;14.70;8.43;;;9.40;91.10;;;;;;5011199;28;20037;-69
2021/10/25 09:25:58;;;;;;;15.63;7.60;;;9.50;91.20;;;;;;4994341;28;20076;-69
2021/10/25 09:28:29;;;;;;;12.90;7.63;;;9.70;91.30;;;;;;5010060;28;20042;-69
2021/10/25 09:30:59;;;;;;;10.80;7.05;;;9.70;90.90;;;;;;5003041;28;20054;-69
2021/10/25 09:33:33;;;;;;;11.65;7.57;;;9.70;90.80;;;;;;4981942;28;20037;-69
2021/10/25 09:36:04;;;;;;;9.02;6.65;;;9.70;90.80;;;;;;5011919;28;20029;-69
2021/10/25 09:49:33;;;;;;;9.48;7.03;;;9.80;91.00;;;;;;5013111;28;20403;-69
2021/10/25 09:52:00;;;;;;;10.15;6.93;;;9.80;90.90;;;;;;5011729;28;20164;-69
2021/10/25 09:54:31;;;;;;;8.90;6.20;;;9.80;90.90;;;;;;5004422;28;20062;-69
2021/10/25 09:57:05;;;;;;;9.25;6.22;;;9.80;90.90;;;;;;5000268;28;20033;-69
2021/10/25 10:02:09;;;;;;;9.70;6.63;;;9.90;90.90;;;;;;5008828;28;20365;-68
2021/10/25 10:04:35;;;;;;;8.50;6.20;;;9.90;90.90;;;;;;5008012;28;20034;-68
2021/10/25 10:07:01;;;;;;;10.07;6.78;;;9.90;90.80;;;;;;5008173;28;20026;-68
2021/10/25 10:09:27;;;;;;;8.48;5.85;;;10.00;90.90;;;;;;4990208;28;20030;-68
2021/10/25 10:11:54;;;;;;;9.68;6.57;;;10.00;90.90;;;;;;5008269;28;20032;-68
2021/10/25 10:14:22;;;;;;;8.27;5.90;;;10.10;90.90;;;;;;5008808;28;20028;-68
2021/10/25 10:16:48;;;;;;;8.90;5.40;;;10.20;90.90;;;;;;5008588;28;20030;-68
2021/10/25 10:19:21;;;;;;;7.57;5.03;;;10.30;90.90;;;;;;5008366;28;20032;-68
2021/10/25 10:21:48;;;;;;;9.30;5.63;;;10.30;90.80;;;;;;5007939;28;20034;-68
2021/10/25 10:24:13;;;;;;;5.35;4.10;;;10.40;90.80;;;;;;5007528;28;20037;-68
2021/10/25 10:26:41;;;;;;;5.65;4.40;;;10.50;90.80;;;;;;5008944;28;20478;-68
2021/10/25 10:29:15;;;;;;;5.55;4.30;;;10.60;90.70;;;;;;5006838;28;20545;-68
2021/10/25 10:31:41;;;;;;;8.73;5.68;;;10.60;90.50;;;;;;5007645;28;20480;-68
2021/10/25 10:34:15;;;;;;;7.38;4.72;;;10.70;90.50;;;;;;5003694;28;20037;-69
2021/10/25 10:36:54;;;;;;;8.30;5.32;;;10.80;90.50;;;;;;5007983;28;20140;-68
2021/10/25 10:39:25;;;;;;;6.68;4.65;;;10.90;90.50;;;;;;5007284;28;20030;-68
2021/10/25 10:41:55;;;;;;;6.47;4.47;;;11.00;90.40;;;;;;5007907;28;20096;-68
2021/10/25 10:44:26;;;;;;;8.77;4.72;;;11.10;90.30;;;;;;5006434;28;20029;-68
2021/10/25 10:46:59;;;;;;;6.90;4.60;;;11.10;90.20;;;;;;5007156;28;20034;-68
2021/10/25 10:49:33;;;;;;;8.20;5.03;;;11.20;90.20;;;;;;5006100;28;20502;-68
2021/10/25 10:52:19;;;;;;;10.75;6.43;;;11.30;90.20;;;;;;5006991;28;20057;-68
2021/10/25 10:55:01;;;;;;;12.20;5.35;;;11.40;90.10;;;;;;5004489;28;20030;-68
2021/10/25 11:00:21;;;;;;;11.27;5.53;;;11.60;90.10;;;;;;5007729;28;20513;-68
2021/10/25 11:02:51;;;;;;;8.73;4.78;;;11.70;90.00;;;;;;5006468;28;20462;-68
2021/10/25 11:05:40;;;;;;;11.45;5.60;;;11.80;90.10;;;;;;5004394;28;20108;-68
2021/10/25 11:08:13;;;;;;;9.15;5.60;;;11.90;90.10;;;;;;4979021;28;20022;-67
2021/10/25 11:10:40;;;;;;;14.60;5.90;;;12.00;90.10;;;;;;5007439;28;20022;-68
2021/10/25 11:13:12;;;;;;;8.82;5.07;;;12.10;90.00;;;;;;5006235;28;20498;-68
2021/10/25 11:15:41;;;;;;;26.52;10.52;;;12.20;89.80;;;;;;5006923;28;20038;-68
2021/10/25 11:18:08;;;;;;;8.80;4.65;;;12.30;89.50;;;;;;5006968;28;20449;-68
2021/10/25 11:20:34;;;;;;;11.23;6.22;;;12.40;89.10;;;;;;5006852;28;20448;-68
2021/10/25 11:23:06;;;;;;;13.68;6.28;;;12.50;88.90;;;;;;5010299;28;20429;-68
2021/10/25 11:25:44;;;;;;;7.03;4.10;;;12.50;88.60;;;;;;5006852;28;20022;-68
2021/10/25 11:28:18;;;;;;;9.48;5.20;;;12.60;88.30;;;;;;4971163;28;1077444;-68
2021/10/25 11:30:44;;;;;;;9.07;4.95;;;12.70;88.30;;;;;;5010207;28;20108;-68
2021/10/25 11:33:10;;;;;;;6.75;4.65;;;12.80;88.10;;;;;;5014118;28;20041;-68
2021/10/25 11:35:45;;;;;;;7.78;4.88;;;12.90;87.80;;;;;;5002987;28;20026;-68
2021/10/25 11:38:13;;;;;;;4.28;3.63;;;13.10;87.50;;;;;;5010969;28;20402;-68
2021/10/25 11:40:38;;;;;;;4.10;3.00;;;13.40;87.30;;;;;;5011335;28;20056;-68
2021/10/25 11:43:04;;;;;;;4.85;3.40;;;13.60;86.80;;;;;;5010603;28;20034;-68
2021/10/25 11:45:32;;;;;;;4.95;3.13;;;13.90;86.60;;;;;;5010615;28;20029;-68
2021/10/25 11:47:57;;;;;;;4.55;3.72;;;14.10;86.20;;;;;;5010125;28;20080;-68
2021/10/25 11:50:30;;;;;;;5.03;3.08;;;14.20;85.60;;;;;;5011185;28;20026;-68
2021/10/25 11:53:03;;;;;;;;;;;14.20;85.10;;;;;;5010794;28;20034;-68
2021/10/25 11:55:39;;;;;;;4.00;2.50;;;14.30;85.80;;;;;;5006471;28;19917;-68
2021/10/25 11:58:07;;;;;;;2.95;2.65;;;14.50;85.50;;;;;;5005917;28;20022;-66
2021/10/25 12:00:38;;;;;;;7.18;3.33;;;14.60;84.90;;;;;;5010920;28;20026;-67
2021/10/25 12:03:10;;;;;;;5.40;3.20;;;14.80;84.60;;;;;;5009862;28;20037;-67
2021/10/25 12:05:36;;;;;;;3.30;2.00;;;15.00;84.40;;;;;;5009387;28;20113;-67
2021/10/25 12:08:03;;;;;;;2.90;2.17;;;15.30;83.70;;;;;;5010674;28;20026;-67
2021/10/25 12:10:38;;;;;;;2.67;2.05;;;15.40;83.20;;;;;;5011223;28;20055;-66
2021/10/25 12:13:06;;;;;;;2.15;1.80;;;15.70;82.30;;;;;;4992458;28;20334;-66
2021/10/25 12:15:34;;;;;;;3.20;1.70;;;15.90;81.70;;;;;;5010592;28;20541;-67
2021/10/25 12:18:03;;;;;;;1.63;1.52;;;16.00;80.90;;;;;;5010173;28;20045;-68
2021/10/25 12:20:32;;;;;;;2.75;1.30;;;16.30;80.50;;;;;;5010639;28;20026;-67
2021/10/25 12:23:10;;;;;;;3.47;1.70;;;16.50;79.70;;;;;;5009572;28;20030;-68
2021/10/25 12:25:36;;;;;;;1.60;1.38;;;16.80;78.90;;;;;;5010036;28;20410;-67
2021/10/25 12:28:20;;;;;;;2.40;1.65;;;17.00;78.30;;;;;;5010654;28;20513;-68
2021/10/25 12:30:50;;;;;;;1.50;1.40;;;17.20;76.70;;;;;;5011135;28;20092;-68
2021/10/25 12:33:20;;;;;;;3.22;2.65;;;17.30;77.00;;;;;;5009832;28;20030;-67
2021/10/25 12:35:47;;;;;;;1.50;1.30;;;17.50;76.20;;;;;;4991307;28;20438;-67
2021/10/25 12:38:16;;;;;;;3.13;1.50;;;17.50;75.60;;;;;;4997868;28;20030;-67
2021/10/25 12:40:46;;;;;;;4.00;1.48;;;17.60;75.00;;;;;;5003781;28;20022;-68
2021/10/25 12:43:13;;;;;;;2.78;1.00;;;17.60;74.20;;;;;;5003968;28;20092;-68
2021/10/25 12:45:44;;;;;;;2.53;1.55;;;17.70;74.10;;;;;;5010461;28;20037;-67
2021/10/25 12:48:14;;;;;;;3.25;1.55;;;18.00;73.40;;;;;;5009720;28;20030;-65
2021/10/25 12:50:42;;;;;;;1.30;1.17;;;18.00;72.20;;;;;;5010300;28;20113;-65
2021/10/25 12:53:13;;;;;;;2.72;1.30;;;18.10;71.80;;;;;;5009382;28;20018;-69
2021/10/25 12:55:42;;;;;;;3.17;1.27;;;18.20;71.90;;;;;;4981946;28;20517;-68
2021/10/25 12:58:10;;;;;;;2.22;1.10;;;18.50;71.70;;;;;;5009748;28;20399;-65
2021/10/25 13:00:37;;;;;;;3.55;2.22;;;18.70;71.20;;;;;;5009888;28;20129;-65
2021/10/25 13:03:09;;;;;;;2.63;1.63;;;18.90;71.10;;;;;;5008857;28;20026;-65
2021/10/25 13:05:37;;;;;;;1.42;1.05;;;19.20;70.00;;;;;;5008509;28;20061;-65
2021/10/25 13:08:05;;;;;;;2.30;1.92;;;19.40;69.90;;;;;;5009673;28;20026;-68
2021/10/25 13:10:40;;;;;;;2.47;1.50;;;19.60;68.80;;;;;;5008116;28;20025;-67
2021/10/25 13:13:08;;;;;;;2.50;1.20;;;19.80;67.30;;;;;;5009602;28;20030;-66
2021/10/25 13:15:35;;;;;;;2.25;1.38;;;19.90;67.90;;;;;;5009277;28;20034;-67
2021/10/25 13:18:03;;;;;;;1.20;1.10;;;20.10;66.90;;;;;;4990752;28;20030;-66
2021/10/25 13:20:32;;;;;;;4.45;1.17;;;20.10;65.30;;;;;;5009365;28;20125;-67
2021/10/25 13:23:02;;;;;;;2.30;1.20;;;20.10;65.30;;;;;;4990947;28;20559;-66
2021/10/25 13:25:29;;;;;;;1.58;1.17;;;20.10;64.70;;;;;;5010127;28;20030;-66
2021/10/25 13:27:57;;;;;;;2.28;1.40;;;20.20;65.20;;;;;;5009157;28;20108;-67
2021/10/25 13:30:24;;;;;;;2.42;1.27;;;20.40;64.90;;;;;;5009141;28;20437;-66
2021/10/25 13:32:49;;;;;;;1.50;1.33;;;20.60;64.80;;;;;;5008329;28;20051;-67
2021/10/25 13:35:16;;;;;;;2.25;1.40;;;20.80;64.20;;;;;;4998618;28;20038;-67
2021/10/25 13:37:43;;;;;;;1.65;1.55;;;20.90;63.80;;;;;;4992582;28;20064;-67
2021/10/25 13:40:09;;;;;;;2.30;1.88;;;20.90;63.30;;;;;;5002288;28;20022;-67
2021/10/25 13:42:36;;;;;;;4.20;1.35;;;21.00;62.30;;;;;;4991995;28;20030;-67
2021/10/25 13:45:04;;;;;;;2.20;1.20;;;20.80;61.70;;;;;;5008027;28;20359;-66
2021/10/25 13:47:30;;;;;;;2.67;1.13;;;20.80;61.60;;;;;;5008774;28;20395;-68
2021/10/25 13:49:56;;;;;;;3.38;1.50;;;20.80;62.00;;;;;;5006804;28;20030;-67
2021/10/25 13:52:22;;;;;;;3.13;1.30;;;20.80;61.60;;;;;;4997249;28;20103;-67
2021/10/25 13:54:49;;;;;;;2.42;1.40;;;20.80;61.30;;;;;;5001137;28;20022;-68
2021/10/25 13:57:19;;;;;;;2.28;1.60;;;20.90;60.90;;;;;;4992332;28;20034;-67
2021/10/25 13:59:45;;;;;;;2.45;1.50;;;20.90;61.40;;;;;;5007831;28;20028;-68
2021/10/25 14:02:13;;;;;;;3.15;2.20;;;21.00;60.70;;;;;;4993502;28;20026;-68
2021/10/25 14:04:46;;;;;;;10.20;5.78;;;21.10;60.40;;;;;;5003466;28;20030;-68
2021/10/25 14:07:17;;;;;;;4.38;2.10;;;21.10;59.80;;;;;;4993247;28;20019;-67
2021/10/25 14:09:43;;;;;;;3.08;1.50;;;21.10;60.00;;;;;;4986151;28;20037;-68
2021/10/25 14:12:10;;;;;;;1.95;1.27;;;21.20;59.80;;;;;;5008647;28;20053;-67
2021/10/25 14:14:37;;;;;;;2.33;1.50;;;21.20;59.20;;;;;;5005511;28;20080;-67
2021/10/25 14:17:03;;;;;;;1.90;1.55;;;21.20;58.50;;;;;;4993203;28;20104;-67
2021/10/25 14:19:29;;;;;;;2.03;1.42;;;21.00;58.20;;;;;;4999225;28;20065;-67
2021/10/25 14:21:56;;;;;;;1.38;1.15;;;20.80;58.20;;;;;;5007776;28;20069;-67
2021/10/25 14:24:22;;;;;;;1.95;1.40;;;20.60;57.60;;;;;;5007717;28;20109;-67
2021/10/25 14:27:03;;;;;;;2.13;1.30;;;20.30;57.60;;;;;;5008519;28;20026;-67
2021/10/25 14:29:29;;;;;;;2.22;1.55;;;20.20;57.30;;;;;;5002538;28;20034;-69
2021/10/25 14:31:55;;;;;;;1.65;1.20;;;19.90;57.40;;;;;;5017382;23;20050;-67
2021/10/25 14:34:20;;;;;;;1.90;1.20;;;19.70;57.30;;;;;;5002829;28;20041;-67
2021/10/25 14:36:52;;;;;;;4.68;1.58;;;19.60;57.90;;;;;;5004677;28;20053;-68
2021/10/25 14:39:33;;;;;;;2.00;1.23;;;19.50;57.80;;;;;;4985467;28;20029;-66
2021/10/25 14:42:42;;;;;;;1.10;1.08;;;19.40;58.00;;;;;;4988609;28;20513;-67
2021/10/25 14:44:56;;;;;;;2.85;1.25;;;19.30;58.00;;;;;;4994412;28;20057;-67
2021/10/25 14:47:41;;;;;;;2.13;1.25;;;19.10;58.00;;;;;;5008015;28;20654;-67